createdAt,value
2018-06-19T00:00:00.555Z,14
2018-06-19T00:00:50.540Z,14.1
2018-06-19T00:01:40.612Z,14.1
2018-06-19T00:02:30.683Z,14.1
2018-06-19T00:03:20.725Z,14
2018-06-19T00:04:10.565Z,14.1
2018-06-19T00:05:00.580Z,14.1
2018-06-19T00:05:50.355Z,14
2018-06-19T00:06:41.008Z,14
2018-06-19T00:07:30.828Z,14
2018-06-19T00:08:21.114Z,14
2018-06-19T00:09:10.892Z,14
2018-06-19T00:10:01.247Z,14
2018-06-19T00:10:51.015Z,14
2018-06-19T00:11:41.113Z,14
2018-06-19T00:12:31.166Z,14
2018-06-19T00:13:20.927Z,14
2018-06-19T00:14:11.283Z,14
2018-06-19T00:15:01.617Z,14
2018-06-19T00:15:51.692Z,14
2018-06-19T00:16:41.736Z,14
2018-06-19T00:17:31.525Z,14
2018-06-19T00:18:21.832Z,14
2018-06-19T00:19:11.935Z,14
2018-06-19T00:20:01.737Z,14
2018-06-19T00:20:51.774Z,14
2018-06-19T00:21:41.873Z,14
2018-06-19T00:22:31.639Z,14
2018-06-19T00:23:21.697Z,14
2018-06-19T00:24:12.351Z,14
2018-06-19T00:25:02.377Z,14
2018-06-19T00:25:52.161Z,13.9
2018-06-19T00:26:42.224Z,13.9
2018-06-19T00:27:32.582Z,14
2018-06-19T00:28:22.620Z,14
2018-06-19T00:29:12.682Z,14
2018-06-19T00:30:02.764Z,14
2018-06-19T00:30:52.838Z,13.9
2018-06-19T00:31:42.316Z,14
2018-06-19T00:32:32.948Z,14
2018-06-19T00:33:23.009Z,14
2018-06-19T00:34:12.796Z,13.9
2018-06-19T00:35:03.148Z,13.9
2018-06-19T00:35:53.212Z,13.9
2018-06-19T00:36:42.995Z,13.9
2018-06-19T00:37:33.332Z,13.9
2018-06-19T00:38:23.119Z,13.9
2018-06-19T00:39:13.471Z,13.9
2018-06-19T00:40:03.240Z,13.9
2018-06-19T00:40:53.590Z,13.9
2018-06-19T00:41:43.661Z,13.9
2018-06-19T00:42:33.723Z,13.9
2018-06-19T00:43:23.528Z,13.9
2018-06-19T00:44:13.879Z,13.9
2018-06-19T00:45:03.613Z,13.9
2018-06-19T00:45:53.681Z,13.9
2018-06-19T00:46:43.456Z,13.9
2018-06-19T00:47:34.085Z,13.9
2018-06-19T00:48:24.198Z,13.9
2018-06-19T00:49:14.205Z,13.9
2018-06-19T00:50:04.269Z,13.9
2018-06-19T00:50:54.323Z,13.9
2018-06-19T00:51:44.119Z,13.9
2018-06-19T00:52:34.216Z,13.9
2018-06-19T00:53:23.954Z,13.9
2018-06-19T00:54:14.315Z,13.9
2018-06-19T00:55:04.408Z,13.9
2018-06-19T00:55:54.459Z,13.9
2018-06-19T00:56:44.789Z,13.9
2018-06-19T00:57:34.831Z,13.9
2018-06-19T00:58:24.334Z,13.9
2018-06-19T00:59:14.699Z,13.9
2018-06-19T01:00:04.753Z,13.8
2018-06-19T01:00:54.807Z,13.9
2018-06-19T01:01:44.879Z,13.9
2018-06-19T01:02:34.679Z,13.9
2018-06-19T01:03:25.309Z,13.9
2018-06-19T01:04:15.346Z,13.9
2018-06-19T01:05:05.403Z,13.8
2018-06-19T01:05:55.464Z,13.8
2018-06-19T01:06:45.590Z,13.8
2018-06-19T01:07:35.066Z,13.8
2018-06-19T01:08:25.081Z,13.8
2018-06-19T01:09:15.183Z,13.8
2018-06-19T01:10:05.787Z,13.8
2018-06-19T01:10:55.586Z,13.8
2018-06-19T01:11:45.908Z,13.8
2018-06-19T01:12:36.011Z,13.8
2018-06-19T01:13:26.043Z,13.8
2018-06-19T01:14:15.836Z,13.8
2018-06-19T01:15:05.883Z,13.8
2018-06-19T01:15:55.961Z,13.8
2018-06-19T01:16:46.300Z,13.8
2018-06-19T01:17:36.496Z,13.8
2018-06-19T01:18:25.861Z,13.8
2018-06-19T01:19:16.223Z,13.8
2018-06-19T01:20:06.614Z,13.8
2018-06-19T01:20:56.051Z,13.8
2018-06-19T01:21:46.678Z,13.8
2018-06-19T01:22:36.463Z,13.8
2018-06-19T01:23:26.801Z,13.8
2018-06-19T01:24:16.857Z,13.8
2018-06-19T01:25:06.926Z,13.8
2018-06-19T01:25:56.725Z,13.8
2018-06-19T01:26:47.064Z,13.8
2018-06-19T01:27:37.101Z,13.8
2018-06-19T01:28:26.920Z,13.7
2018-06-19T01:29:16.985Z,13.8
2018-06-19T01:30:07.305Z,13.7
2018-06-19T01:30:57.076Z,13.7
2018-06-19T01:31:47.428Z,13.7
2018-06-19T01:32:37.514Z,13.7
2018-06-19T01:33:27.295Z,13.7
2018-06-19T01:34:17.343Z,13.7
2018-06-19T01:35:07.708Z,13.6
2018-06-19T01:35:57.470Z,13.6
2018-06-19T01:36:47.819Z,13.6
2018-06-19T01:37:37.606Z,13.6
2018-06-19T01:38:27.966Z,13.7
2018-06-19T01:39:17.987Z,13.6
2018-06-19T01:40:07.779Z,13.6
2018-06-19T01:40:57.850Z,13.6
2018-06-19T01:41:48.189Z,13.6
2018-06-19T01:42:38.242Z,13.6
2018-06-19T01:43:27.765Z,13.6
2018-06-19T01:44:18.112Z,13.6
2018-06-19T01:45:08.174Z,13.6
2018-06-19T01:45:57.929Z,13.6
2018-06-19T01:46:48.555Z,13.6
2018-06-19T01:47:38.643Z,13.6
2018-06-19T01:48:28.684Z,13.6
2018-06-19T01:49:18.761Z,13.6
2018-06-19T01:50:08.846Z,13.6
2018-06-19T01:50:58.613Z,13.6
2018-06-19T01:51:48.969Z,13.6
2018-06-19T01:52:39.027Z,13.6
2018-06-19T01:53:28.510Z,13.6
2018-06-19T01:54:19.119Z,13.6
2018-06-19T01:55:08.954Z,13.6
2018-06-19T01:55:59.253Z,13.6
2018-06-19T01:56:49.313Z,13.6
2018-06-19T01:57:39.099Z,13.5
2018-06-19T01:58:29.484Z,13.5
2018-06-19T01:59:19.500Z,13.5
2018-06-19T02:00:09.566Z,13.5
2018-06-19T02:00:59.421Z,13.5
2018-06-19T02:01:49.694Z,13.5
2018-06-19T02:02:39.761Z,13.5
2018-06-19T02:03:29.832Z,13.5
2018-06-19T02:04:19.603Z,13.5
2018-06-19T02:05:09.664Z,13.5
2018-06-19T02:05:59.748Z,13.5
2018-06-19T02:06:49.859Z,13.4
2018-06-19T02:07:39.580Z,13.4
2018-06-19T02:08:29.953Z,13.4
2018-06-19T02:09:20.279Z,13.4
2018-06-19T02:10:10.148Z,13.4
2018-06-19T02:11:00.116Z,13.4
2018-06-19T02:11:50.473Z,13.4
2018-06-19T02:12:40.260Z,13.4
2018-06-19T02:13:30.600Z,13.4
2018-06-19T02:14:20.388Z,13.4
2018-06-19T02:15:10.733Z,13.4
2018-06-19T02:16:00.773Z,13.4
2018-06-19T02:16:50.834Z,13.4
2018-06-19T02:17:40.632Z,13.4
2018-06-19T02:18:30.687Z,13.4
2018-06-19T02:19:21.063Z,13.4
2018-06-19T02:20:10.540Z,13.4
2018-06-19T02:21:01.204Z,13.4
2018-06-19T02:21:51.235Z,13.4
2018-06-19T02:22:41.301Z,13.4
2018-06-19T02:23:31.377Z,13.4
2018-06-19T02:24:21.119Z,13.4
2018-06-19T02:25:11.485Z,13.4
2018-06-19T02:26:01.529Z,13.4
2018-06-19T02:26:51.324Z,13.4
2018-06-19T02:27:41.126Z,13.4
2018-06-19T02:28:31.722Z,13.4
2018-06-19T02:29:21.774Z,13.4
2018-06-19T02:30:11.853Z,13.4
2018-06-19T02:31:01.627Z,13.4
2018-06-19T02:31:52.012Z,13.3
2018-06-19T02:32:41.762Z,13.3
2018-06-19T02:33:31.830Z,13.4
2018-06-19T02:34:22.169Z,13.3
2018-06-19T02:35:12.263Z,13.3
2018-06-19T02:36:02.315Z,13.3
2018-06-19T02:36:52.105Z,13.3
2018-06-19T02:37:42.413Z,13.3
2018-06-19T02:38:32.224Z,13.3
2018-06-19T02:39:22.601Z,13.3
2018-06-19T02:40:12.386Z,13.3
2018-06-19T02:41:02.438Z,13.3
2018-06-19T02:41:52.766Z,13.3
2018-06-19T02:42:42.510Z,13.3
2018-06-19T02:43:32.881Z,13.4
2018-06-19T02:44:22.918Z,13.3
2018-06-19T02:45:12.979Z,13.4
2018-06-19T02:46:02.785Z,13.4
2018-06-19T02:46:52.822Z,13.4
2018-06-19T02:47:42.922Z,13.4
2018-06-19T02:48:32.711Z,13.4
2018-06-19T02:49:23.323Z,13.4
2018-06-19T02:50:13.113Z,13.4
2018-06-19T02:51:02.609Z,13.4
2018-06-19T02:51:53.503Z,13.4
2018-06-19T02:52:42.702Z,13.4
2018-06-19T02:53:33.615Z,13.4
2018-06-19T02:54:23.689Z,13.4
2018-06-19T02:55:13.473Z,13.4
2018-06-19T02:56:03.536Z,13.4
2018-06-19T02:56:53.880Z,13.4
2018-06-19T02:57:43.927Z,13.4
2018-06-19T02:58:34.019Z,13.4
2018-06-19T02:59:24.063Z,13.4
2018-06-19T03:00:14.389Z,13.5
2018-06-19T03:01:04.188Z,13.5
2018-06-19T03:01:54.260Z,13.5
2018-06-19T03:02:43.744Z,13.5
2018-06-19T03:03:34.459Z,13.5
2018-06-19T03:04:23.919Z,13.5
2018-06-19T03:05:14.483Z,13.5
2018-06-19T03:06:04.593Z,13.6
2018-06-19T03:06:54.334Z,13.6
2018-06-19T03:07:44.421Z,13.6
2018-06-19T03:08:34.512Z,13.6
2018-06-19T03:09:24.864Z,13.6
2018-06-19T03:10:14.892Z,13.6
2018-06-19T03:11:04.657Z,13.6
2018-06-19T03:11:54.777Z,13.6
2018-06-19T03:12:44.508Z,13.6
2018-06-19T03:13:34.858Z,13.6
2018-06-19T03:14:25.179Z,13.6
2018-06-19T03:15:15.261Z,13.7
2018-06-19T03:16:05.339Z,13.7
2018-06-19T03:16:54.827Z,13.7
2018-06-19T03:17:45.456Z,13.7
2018-06-19T03:18:35.499Z,13.8
2018-06-19T03:19:25.570Z,13.8
2018-06-19T03:20:15.674Z,13.8
2018-06-19T03:21:05.461Z,13.8
2018-06-19T03:21:55.753Z,13.8
2018-06-19T03:22:45.548Z,13.8
2018-06-19T03:23:35.598Z,13.8
2018-06-19T03:24:25.962Z,13.8
2018-06-19T03:25:30.747Z,13.9
2018-06-19T03:26:05.809Z,13.9
2018-06-19T03:26:56.143Z,13.9
2018-06-19T03:27:45.912Z,13.9
2018-06-19T03:28:36.006Z,13.9
2018-06-19T03:29:26.097Z,13.9
2018-06-19T03:30:16.170Z,13.9
2018-06-19T03:31:06.189Z,13.9
2018-06-19T03:31:56.514Z,14
2018-06-19T03:32:46.320Z,14
2018-06-19T03:33:36.654Z,14
2018-06-19T03:34:26.498Z,14
2018-06-19T03:35:16.474Z,14.1
2018-06-19T03:36:06.562Z,14.1
2018-06-19T03:36:56.659Z,14.1
2018-06-19T03:37:46.708Z,14.1
2018-06-19T03:38:36.766Z,14.2
2018-06-19T03:39:27.083Z,14.2
2018-06-19T03:40:16.889Z,14.2
2018-06-19T03:41:06.935Z,14.3
2018-06-19T03:41:57.263Z,14.3
2018-06-19T03:42:47.045Z,14.3
2018-06-19T03:43:37.394Z,14.4
2018-06-19T03:44:27.180Z,14.4
2018-06-19T03:45:17.241Z,14.4
2018-06-19T03:46:07.589Z,14.4
2018-06-19T03:46:57.390Z,14.5
2018-06-19T03:47:47.438Z,14.6
2018-06-19T03:48:37.785Z,14.6
2018-06-19T03:49:27.559Z,14.7
2018-06-19T03:50:17.899Z,14.8
2018-06-19T03:51:07.977Z,14.8
2018-06-19T03:51:57.757Z,14.8
2018-06-19T03:52:47.799Z,14.9
2018-06-19T03:53:38.157Z,15
2018-06-19T03:54:28.217Z,15.1
2018-06-19T03:55:18.290Z,15.1
2018-06-19T03:56:08.341Z,15.2
2018-06-19T03:56:58.416Z,15.3
2018-06-19T03:57:48.250Z,15.4
2018-06-19T03:58:38.524Z,15.4
2018-06-19T03:59:27.760Z,15.6
2018-06-19T04:00:18.681Z,15.6
2018-06-19T04:01:08.720Z,15.8
2018-06-19T04:01:58.788Z,15.8
2018-06-19T04:02:48.587Z,15.9
2018-06-19T04:03:38.074Z,15.9
2018-06-19T04:04:28.989Z,16.1
2018-06-19T04:05:19.106Z,16.1
2018-06-19T04:06:08.861Z,16.3
2018-06-19T04:06:58.894Z,16.3
2018-06-19T04:07:49.244Z,16.4
2018-06-19T04:08:38.992Z,16.4
2018-06-19T04:09:29.349Z,16.6
2018-06-19T04:10:19.472Z,16.6
2018-06-19T04:11:09.464Z,16.8
2018-06-19T04:11:59.008Z,16.8
2018-06-19T04:12:49.611Z,16.9
2018-06-19T04:14:29.738Z,17.1
2018-06-19T04:15:19.529Z,17.1
2018-06-19T04:16:09.590Z,17.3
2018-06-19T04:16:59.925Z,17.3
2018-06-19T04:17:49.981Z,17.4
2018-06-19T04:18:39.762Z,17.5
2018-06-19T04:19:30.123Z,17.6
2018-06-19T04:20:20.183Z,17.7
2018-06-19T04:21:10.240Z,17.8
2018-06-19T04:22:00.295Z,17.9
2018-06-19T04:22:50.095Z,18
2018-06-19T04:23:40.475Z,18.1
2018-06-19T04:24:30.480Z,18.3
2018-06-19T04:25:20.307Z,18.3
2018-06-19T04:26:09.840Z,18.4
2018-06-19T04:27:00.675Z,18.5
2018-06-19T04:28:40.808Z,18.8
2018-06-19T04:29:30.874Z,18.9
2018-06-19T04:30:20.966Z,19.1
2018-06-19T04:31:10.713Z,19.2
2018-06-19T04:32:01.046Z,19.4
2018-06-19T04:32:50.548Z,19.5
2018-06-19T04:33:41.194Z,19.7
2018-06-19T04:34:30.981Z,19.9
2018-06-19T04:35:21.025Z,20.1
2018-06-19T04:36:11.386Z,20.4
2018-06-19T04:37:01.469Z,20.6
2018-06-19T04:37:51.496Z,20.8
2018-06-19T04:38:41.104Z,21.1
2018-06-19T04:39:31.614Z,21.3
2018-06-19T04:40:21.400Z,21.5
2018-06-19T04:41:11.758Z,21.8
2018-06-19T04:42:01.759Z,21.9
2018-06-19T04:42:50.850Z,22.1
2018-06-19T04:43:41.957Z,22.3
2018-06-19T04:44:31.729Z,22.4
2018-06-19T04:45:22.083Z,22.6
2018-06-19T04:46:12.160Z,22.8
2018-06-19T04:47:02.213Z,23
2018-06-19T04:47:52.287Z,23.2
2018-06-19T04:48:42.072Z,23.4
2018-06-19T04:49:32.380Z,23.6
2018-06-19T04:50:22.454Z,23.8
2018-06-19T04:51:12.501Z,23.9
2018-06-19T04:52:02.376Z,24.2
2018-06-19T04:52:52.388Z,24.4
2018-06-19T04:53:42.433Z,24.8
2018-06-19T04:54:32.345Z,25.1
2018-06-19T04:55:22.272Z,25.5
2018-06-19T04:56:12.919Z,25.9
2018-06-19T04:57:02.684Z,26.4
2018-06-19T04:57:53.002Z,26.9
2018-06-19T04:58:42.807Z,27.4
2018-06-19T04:59:33.154Z,27.9
2018-06-19T05:00:23.272Z,28.4
2018-06-19T05:01:13.011Z,28.9
2018-06-19T05:02:03.333Z,29.3
2018-06-19T05:02:53.408Z,29.7
2018-06-19T05:03:43.382Z,30.1
2018-06-19T05:04:33.274Z,30.6
2018-06-19T05:05:23.570Z,30.9
2018-06-19T05:06:13.373Z,31.3
2018-06-19T05:07:03.234Z,31.6
2018-06-19T05:07:53.784Z,32
2018-06-19T05:08:43.564Z,32.3
2018-06-19T05:09:33.906Z,32.5
2018-06-19T05:10:23.965Z,32.8
2018-06-19T05:11:14.038Z,32.9
2018-06-19T05:12:04.090Z,33.1
2018-06-19T05:12:54.317Z,33.3
2018-06-19T05:13:43.947Z,33.4
2018-06-19T05:14:34.259Z,33.6
2018-06-19T05:15:24.061Z,33.7
2018-06-19T05:16:14.410Z,33.9
2018-06-19T05:17:04.512Z,34
2018-06-19T05:17:54.257Z,34.2
2018-06-19T05:18:44.642Z,34.3
2018-06-19T05:19:34.662Z,34.4
2018-06-19T05:20:24.199Z,34.6
2018-06-19T05:21:14.506Z,34.8
2018-06-19T05:22:04.316Z,34.9
2018-06-19T05:22:54.638Z,35.1
2018-06-19T05:23:43.935Z,35.3
2018-06-19T05:24:35.070Z,35.4
2018-06-19T05:25:25.092Z,35.7
2018-06-19T05:26:15.182Z,35.9
2018-06-19T05:27:05.246Z,36.1
2018-06-19T05:27:55.283Z,36.3
2018-06-19T05:28:45.383Z,36.5
2018-06-19T05:29:35.139Z,36.8
2018-06-19T05:30:25.421Z,37.1
2018-06-19T05:31:15.316Z,37.6
2018-06-19T05:32:05.339Z,38.2
2018-06-19T05:32:55.378Z,38.9
2018-06-19T05:33:45.202Z,39.6
2018-06-19T05:34:35.544Z,40.3
2018-06-19T05:35:25.859Z,40.9
2018-06-19T05:36:15.367Z,41.5
2018-06-19T05:37:05.722Z,42.2
2018-06-19T05:37:56.046Z,42.9
2018-06-19T05:38:45.838Z,43.4
2018-06-19T05:39:36.191Z,44.1
2018-06-19T05:40:25.662Z,44.7
2018-06-19T05:41:16.313Z,45.3
2018-06-19T05:42:06.365Z,45.9
2018-06-19T05:42:56.427Z,46.5
2018-06-19T05:43:46.523Z,47.1
2018-06-19T05:44:35.421Z,47.6
2018-06-19T05:45:26.637Z,48.1
2018-06-19T05:46:16.581Z,48.6
2018-06-19T05:47:06.501Z,48.9
2018-06-19T05:47:56.835Z,49.2
2018-06-19T05:48:46.875Z,49.6
2018-06-19T05:49:36.398Z,50.1
2018-06-19T05:50:26.749Z,50.5
2018-06-19T05:51:17.094Z,50.9
2018-06-19T05:52:06.856Z,51.3
2018-06-19T05:52:57.429Z,51.8
2018-06-19T05:53:47.088Z,52.1
2018-06-19T05:54:36.771Z,52.4
2018-06-19T05:55:27.378Z,52.8
2018-06-19T05:56:17.447Z,53.1
2018-06-19T05:57:07.267Z,53.4
2018-06-19T05:57:57.306Z,53.8
2018-06-19T05:58:47.170Z,54.1
2018-06-19T05:59:37.761Z,54.4
2018-06-19T06:00:27.790Z,54.8
2018-06-19T06:01:17.835Z,55.1
2018-06-19T06:02:07.594Z,55.4
2018-06-19T06:02:57.947Z,55.8
2018-06-19T06:03:47.722Z,56.1
2018-06-19T06:04:38.108Z,56.4
2018-06-19T06:05:28.215Z,56.8
2018-06-19T06:06:17.950Z,57.1
2018-06-19T06:07:08.275Z,57.4
2018-06-19T06:07:58.361Z,57.6
2018-06-19T06:08:48.127Z,57.8
2018-06-19T06:09:38.488Z,58
2018-06-19T06:10:28.730Z,58.1
2018-06-19T06:11:18.842Z,58.3
2018-06-19T06:12:58.448Z,58.8
2018-06-19T06:13:48.764Z,59.1
2018-06-19T06:14:38.583Z,59.4
2018-06-19T06:15:28.987Z,59.7
2018-06-19T06:16:18.140Z,59.9
2018-06-19T06:17:09.042Z,60.3
2018-06-19T06:17:58.811Z,60.8
2018-06-19T06:18:48.599Z,61.9
2018-06-19T06:19:38.954Z,61.2
2018-06-19T06:20:29.296Z,58.3
2018-06-19T06:21:19.346Z,52.9
2018-06-19T06:22:09.342Z,48
2018-06-19T06:22:58.899Z,45.6
2018-06-19T06:23:49.564Z,44.4
2018-06-19T06:24:39.599Z,44
2018-06-19T06:25:29.405Z,43.9
2018-06-19T06:26:19.172Z,44.2
2018-06-19T06:27:09.241Z,44.6
2018-06-19T06:27:59.007Z,45.1
2018-06-19T06:28:49.984Z,45.9
2018-06-19T06:29:40.001Z,46.9
2018-06-19T06:30:30.067Z,47.9
2018-06-19T06:31:20.001Z,48.8
2018-06-19T06:32:09.902Z,49.4
2018-06-19T06:32:59.958Z,49.8
2018-06-19T06:33:50.411Z,50.2
2018-06-19T06:34:40.360Z,50.7
2018-06-19T06:35:30.173Z,51.2
2018-06-19T06:36:20.225Z,51.7
2018-06-19T06:37:10.884Z,52.2
2018-06-19T06:38:00.611Z,53.1
2018-06-19T06:38:50.679Z,54.2
2018-06-19T06:39:40.751Z,55.2
2018-06-19T06:40:30.812Z,56.2
2018-06-19T06:41:20.600Z,57.1
2018-06-19T06:42:10.936Z,57.9
2018-06-19T06:43:01.021Z,58.8
2018-06-19T06:43:51.080Z,59.6
2018-06-19T06:44:41.200Z,60.4
2018-06-19T06:45:30.907Z,61.4
2018-06-19T06:46:21.242Z,63.4
2018-06-19T06:47:11.325Z,62.5
2018-06-19T06:48:01.104Z,59.7
2018-06-19T06:48:51.472Z,56.5
2018-06-19T06:49:41.509Z,53
2018-06-19T06:50:32.412Z,51
2018-06-19T06:51:21.354Z,50.3
2018-06-19T06:52:11.716Z,50.3
2018-06-19T06:53:01.827Z,50.9
2018-06-19T06:53:51.847Z,51.7
2018-06-19T06:54:41.622Z,52.7
2018-06-19T06:55:31.952Z,53.9
2018-06-19T06:56:21.754Z,55
2018-06-19T06:57:12.119Z,55.9
2018-06-19T06:58:01.877Z,56.6
2018-06-19T06:58:51.939Z,57.6
2018-06-19T06:59:41.989Z,58.9
2018-06-19T07:00:32.127Z,60
2018-06-19T07:01:22.114Z,62.2
2018-06-19T07:02:12.453Z,63.9
2018-06-19T07:03:02.544Z,62.6
2018-06-19T07:03:52.581Z,61.8
2018-06-19T07:04:42.379Z,59.9
2018-06-19T07:05:32.719Z,57.1
2018-06-19T07:06:22.776Z,55.1
2018-06-19T07:07:12.383Z,55.1
2018-06-19T07:08:02.914Z,56.5
2018-06-19T07:08:52.984Z,58.1
2018-06-19T07:09:43.028Z,59.1
2018-06-19T07:10:33.121Z,59.5
2018-06-19T07:11:22.908Z,59.3
2018-06-19T07:12:13.269Z,58.7
2018-06-19T07:13:03.278Z,57.9
2018-06-19T07:13:53.086Z,57.9
2018-06-19T07:14:43.150Z,58.4
2018-06-19T07:15:33.396Z,59
2018-06-19T07:16:23.057Z,59.5
2018-06-19T07:17:13.614Z,59.9
2018-06-19T07:18:02.918Z,59.9
2018-06-19T07:18:53.588Z,59.7
2018-06-19T07:19:43.258Z,59.5
2018-06-19T07:20:33.870Z,59.5
2018-06-19T07:21:23.641Z,59.7
2018-06-19T07:22:14.082Z,60
2018-06-19T07:23:04.073Z,60.3
2018-06-19T07:23:54.109Z,60.6
2018-06-19T07:24:44.251Z,60.6
2018-06-19T07:25:33.990Z,60.6
2018-06-19T07:26:24.340Z,60.8
2018-06-19T07:27:13.832Z,60.8
2018-06-19T07:28:04.445Z,60.8
2018-06-19T07:28:54.243Z,61
2018-06-19T07:29:44.269Z,61.2
2018-06-19T07:30:34.371Z,61.4
2018-06-19T07:31:24.759Z,61.6
2018-06-19T07:32:14.772Z,61.8
2018-06-19T07:33:04.810Z,61.9
2018-06-19T07:33:54.881Z,62.1
2018-06-19T07:34:44.680Z,62.3
2018-06-19T07:35:34.755Z,62.4
2018-06-19T07:36:25.090Z,62.5
2018-06-19T07:37:15.120Z,62.6
2018-06-19T07:38:05.528Z,62.6
2018-06-19T07:38:55.326Z,62.7
2018-06-19T07:39:44.604Z,62.8
2018-06-19T07:40:35.147Z,62.8
2018-06-19T07:41:25.451Z,62.8
2018-06-19T07:42:15.527Z,62.8
2018-06-19T07:43:05.608Z,63
2018-06-19T07:43:55.797Z,63.3
2018-06-19T07:44:45.436Z,63.4
2018-06-19T07:45:35.795Z,63.3
2018-06-19T07:46:25.652Z,63.3
2018-06-19T07:47:15.453Z,63.4
2018-06-19T07:48:05.221Z,63.3
2018-06-19T07:48:55.544Z,63.4
2018-06-19T07:49:45.864Z,63.7
2018-06-19T07:50:36.159Z,64.1
2018-06-19T07:51:26.219Z,64.4
2018-06-19T07:52:16.042Z,64.7
2018-06-19T07:53:06.359Z,64.8
2018-06-19T07:53:56.404Z,64.8
2018-06-19T07:54:46.224Z,64.9
2018-06-19T07:55:37.001Z,65
2018-06-19T07:56:26.625Z,65.1
2018-06-19T07:57:16.270Z,65.3
2018-06-19T07:58:06.472Z,65.5
2018-06-19T07:58:56.849Z,65.9
2018-06-19T07:59:46.576Z,66.1
2018-06-19T08:00:36.958Z,66.4
2018-06-19T08:01:27.002Z,66.4
2018-06-19T08:02:17.079Z,66.7
2018-06-19T08:03:07.166Z,66.9
2018-06-19T08:03:57.198Z,67
2018-06-19T08:04:46.686Z,67.1
2018-06-19T08:05:37.304Z,67.1
2018-06-19T08:06:27.374Z,67
2018-06-19T08:07:17.151Z,67
2018-06-19T08:08:07.241Z,67.1
2018-06-19T08:08:57.295Z,67.2
2018-06-19T08:09:47.622Z,67.4
2018-06-19T08:10:37.733Z,67.3
2018-06-19T08:11:27.760Z,66.3
2018-06-19T08:12:17.822Z,65.2
2018-06-19T08:13:07.873Z,65.6
2018-06-19T08:13:57.968Z,66.4
2018-06-19T08:14:47.734Z,67.1
2018-06-19T08:15:37.799Z,67.6
2018-06-19T08:16:27.868Z,68
2018-06-19T08:17:18.028Z,68.3
2018-06-19T08:18:08.291Z,68.2
2018-06-19T08:18:58.355Z,68.3
2018-06-19T08:19:48.119Z,68.5
2018-06-19T08:20:38.487Z,68.8
2018-06-19T08:21:28.536Z,69
2018-06-19T08:22:18.611Z,69.1
2018-06-19T08:23:08.673Z,69.2
2018-06-19T08:23:58.468Z,69.3
2018-06-19T08:24:48.514Z,69.4
2018-06-19T08:25:38.859Z,69.3
2018-06-19T08:26:28.639Z,69.3
2018-06-19T08:27:18.724Z,69.3
2018-06-19T08:28:09.031Z,68.6
2018-06-19T08:28:59.138Z,67.6
2018-06-19T08:29:49.193Z,66.3
2018-06-19T08:30:39.254Z,64.9
2018-06-19T08:31:29.017Z,63.9
2018-06-19T08:32:19.369Z,63.4
2018-06-19T08:33:09.407Z,63.9
2018-06-19T08:33:59.493Z,64.1
2018-06-19T08:34:49.581Z,64
2018-06-19T08:35:39.622Z,64.9
2018-06-19T08:36:29.132Z,65.8
2018-06-19T08:37:19.479Z,66.2
2018-06-19T08:38:09.904Z,65.9
2018-06-19T08:38:59.931Z,64.6
2018-06-19T08:39:49.945Z,62.8
2018-06-19T08:40:39.536Z,61.4
2018-06-19T08:41:29.519Z,60.6
2018-06-19T08:42:19.594Z,60
2018-06-19T08:43:09.943Z,59.5
2018-06-19T08:44:00.307Z,59.2
2018-06-19T08:44:50.070Z,58.9
2018-06-19T08:45:39.570Z,58.4
2018-06-19T08:46:30.442Z,57.8
2018-06-19T08:47:20.271Z,57.1
2018-06-19T08:48:10.324Z,56.6
2018-06-19T08:49:00.657Z,56.3
2018-06-19T08:49:50.705Z,56.6
2018-06-19T08:51:20.579Z,58.9
2018-06-19T08:52:10.666Z,59.1
2018-06-19T08:53:51.039Z,57.6
2018-06-19T08:54:41.097Z,57.7
2018-06-19T08:55:30.709Z,59.1
2018-06-19T08:56:21.236Z,60.9
2018-06-19T08:57:11.309Z,62.4
2018-06-19T08:58:01.091Z,62.8
2018-06-19T08:58:51.135Z,62.7
2018-06-19T08:59:41.238Z,62.9
2018-06-19T09:00:31.623Z,63.3
2018-06-19T09:01:21.641Z,63.9
2018-06-19T09:02:11.689Z,64.5
2018-06-19T09:03:01.479Z,63.6
2018-06-19T09:03:51.547Z,61.2
2018-06-19T09:04:41.890Z,59.9
2018-06-19T09:05:31.943Z,59.9
2018-06-19T09:06:21.739Z,59.8
2018-06-19T09:07:11.823Z,58.8
2018-06-19T09:08:02.129Z,57.1
2018-06-19T09:08:51.665Z,55.8
2018-06-19T09:09:41.990Z,55
2018-06-19T09:10:32.322Z,54.5
2018-06-19T09:11:22.128Z,54.2
2018-06-19T09:12:11.924Z,54.9
2018-06-19T09:13:02.528Z,56.3
2018-06-19T09:13:52.581Z,58.2
2018-06-19T09:14:42.657Z,60.2
2018-06-19T09:15:32.737Z,62.2
2018-06-19T09:16:22.774Z,64.3
2018-06-19T09:17:12.563Z,67.1
2018-06-19T09:18:02.926Z,70.6
2018-06-19T09:18:52.988Z,69.5
2018-06-19T09:19:43.043Z,66.6
2018-06-19T09:20:32.842Z,61.6
2018-06-19T09:21:22.612Z,57.1
2018-06-19T09:22:13.312Z,54.4
2018-06-19T09:23:03.017Z,53.4
2018-06-19T09:23:53.388Z,53.9
2018-06-19T09:24:43.147Z,55.7
2018-06-19T09:25:33.499Z,58.3
2018-06-19T09:26:23.279Z,60.5
2018-06-19T09:27:13.610Z,61.9
2018-06-19T09:28:03.426Z,62.6
2018-06-19T09:28:53.763Z,63.4
2018-06-19T09:29:43.530Z,64.9
2018-06-19T09:30:33.872Z,64.5
2018-06-19T09:31:23.922Z,64.8
2018-06-19T09:32:14.031Z,64.1
2018-06-19T09:33:04.133Z,62.9
2018-06-19T09:33:54.126Z,61.7
2018-06-19T09:34:44.188Z,60.8
2018-06-19T09:35:34.004Z,61.1
2018-06-19T09:36:24.317Z,61.6
2018-06-19T09:37:14.095Z,60.8
2018-06-19T09:38:04.449Z,59.1
2018-06-19T09:38:54.242Z,57.4
2018-06-19T09:39:44.748Z,56.6
2018-06-19T09:40:34.654Z,56.6
2018-06-19T09:41:24.742Z,56.7
2018-06-19T09:42:14.780Z,56.7
2018-06-19T09:43:04.832Z,56.8
2018-06-19T09:43:54.922Z,56.9
2018-06-19T09:44:44.980Z,56.9
2018-06-19T09:45:34.749Z,57
2018-06-19T09:46:24.836Z,57
2018-06-19T09:47:15.178Z,57.1
2018-06-19T09:48:05.223Z,57.2
2018-06-19T09:48:55.280Z,57.3
2018-06-19T09:49:45.363Z,57.4
2018-06-19T09:50:35.433Z,57.5
2018-06-19T09:51:25.210Z,57.4
2018-06-19T09:52:15.566Z,57.4
2018-06-19T09:53:56.152Z,58.1
2018-06-19T09:54:45.733Z,58.3
2018-06-19T09:55:35.803Z,58.4
2018-06-19T09:57:15.663Z,59.3
2018-06-19T09:58:05.991Z,60.6
2018-06-19T09:58:56.179Z,62.4
2018-06-19T09:59:45.870Z,64.3
2018-06-19T10:00:36.203Z,66.1
2018-06-19T10:01:25.987Z,69.8
2018-06-19T10:02:15.775Z,72.2
2018-06-19T10:03:06.114Z,70.3
2018-06-19T10:03:56.466Z,67.4
2018-06-19T10:04:46.250Z,62.3
2018-06-19T10:05:36.709Z,58.7
2018-06-19T10:06:26.698Z,57.1
2018-06-19T10:07:16.435Z,57.8
2018-06-19T10:08:06.302Z,59.6
2018-06-19T10:08:56.290Z,61.3
2018-06-19T10:09:46.634Z,61.9
2018-06-19T10:10:36.699Z,61.7
2018-06-19T10:11:26.511Z,60.9
2018-06-19T10:12:17.616Z,60.1
2018-06-19T10:13:06.907Z,59.9
2018-06-19T10:13:56.949Z,60.1
2018-06-19T10:14:46.729Z,60.4
2018-06-19T10:15:37.366Z,60.7
2018-06-19T10:16:27.433Z,61.1
2018-06-19T10:17:17.223Z,61.3
2018-06-19T10:18:07.562Z,61.2
2018-06-19T10:18:57.613Z,61.1
2018-06-19T10:19:47.696Z,61.2
2018-06-19T10:20:37.493Z,61.2
2018-06-19T10:21:27.818Z,61.3
2018-06-19T10:22:17.609Z,61.6
2018-06-19T10:23:07.661Z,61.4
2018-06-19T10:23:58.015Z,60.8
2018-06-19T10:24:47.791Z,60.8
2018-06-19T10:25:38.145Z,60.2
2018-06-19T10:26:28.214Z,58.4
2018-06-19T10:27:18.292Z,57.3
2018-06-19T10:28:08.362Z,57.9
2018-06-19T10:28:58.137Z,58.6
2018-06-19T10:29:48.175Z,58.1
2018-06-19T10:30:38.564Z,57.8
2018-06-19T10:31:28.030Z,58.1
2018-06-19T10:32:18.747Z,58.5
2018-06-19T10:33:08.716Z,58.8
2018-06-19T10:33:58.222Z,58.9
2018-06-19T10:34:48.551Z,59.4
2018-06-19T10:35:38.665Z,60.8
2018-06-19T10:36:28.740Z,62.6
2018-06-19T10:37:19.028Z,64.3
2018-06-19T10:38:09.106Z,66.3
2018-06-19T10:38:58.905Z,70
2018-06-19T10:39:48.964Z,69.4
2018-06-19T10:40:39.311Z,66.2
2018-06-19T10:41:29.373Z,62.9
2018-06-19T10:42:19.433Z,60.3
2018-06-19T10:43:09.506Z,58.3
2018-06-19T10:43:59.643Z,56.9
2018-06-19T10:44:49.608Z,56.4
2018-06-19T10:45:39.680Z,56.5
2018-06-19T10:46:29.778Z,57
2018-06-19T10:47:19.271Z,57.9
2018-06-19T10:48:09.619Z,58.9
2018-06-19T10:48:59.652Z,59.5
2018-06-19T10:49:50.038Z,60.4
2018-06-19T10:50:40.094Z,61.9
2018-06-19T10:51:30.163Z,63.4
2018-06-19T10:52:20.198Z,64.4
2018-06-19T10:53:10.018Z,65.9
2018-06-19T10:54:00.351Z,68.9
2018-06-19T10:54:50.418Z,68.9
2018-06-19T10:55:40.181Z,68.1
2018-06-19T10:56:30.549Z,65.4
2018-06-19T10:57:20.114Z,62.8
2018-06-19T10:58:10.655Z,60.9
2018-06-19T10:59:00.688Z,60.4
2018-06-19T10:59:50.535Z,61.3
2018-06-19T11:00:40.844Z,62.4
2018-06-19T11:01:30.925Z,63.1
2018-06-19T11:02:20.975Z,63.2
2018-06-19T11:03:11.035Z,63
2018-06-19T11:04:00.254Z,62.6
2018-06-19T11:04:50.890Z,62.4
2018-06-19T11:05:41.239Z,62.4
2018-06-19T11:06:31.014Z,62.7
2018-06-19T11:07:21.993Z,62.6
2018-06-19T11:08:11.666Z,61.2
2018-06-19T11:09:01.546Z,60.7
2018-06-19T11:09:51.588Z,61.3
2018-06-19T11:10:41.603Z,62.2
2018-06-19T11:11:31.131Z,62.9
2018-06-19T11:12:21.767Z,63.5
2018-06-19T11:13:11.834Z,62.9
2018-06-19T11:14:02.044Z,60.8
2018-06-19T11:14:51.983Z,58.5